sensor_id;sensor_type;location;lat;lon;timestamp;temperature;humidity
23717;DHT22;22094;52.130;5.598;2023-07-09T00:00:58;22.40;1.00
23717;DHT22;22094;52.130;5.598;2023-07-09T00:03:24;22.50;1.00
23717;DHT22;22094;52.130;5.598;2023-07-09T00:05:50;22.30;1.00
23717;DHT22;22094;52.130;5.598;2023-07-09T00:08:27;22.30;1.00
23717;DHT22;22094;52.130;5.598;2023-07-09T00:10:57;22.30;1.00
23717;DHT22;22094;52.130;5.598;2023-07-09T00:13:25;22.20;1.00
23717;DHT22;22094;52.130;5.598;2023-07-09T00:16:00;22.10;57.90
23717;DHT22;22094;52.130;5.598;2023-07-09T00:18:26;22.10;61.60
23717;DHT22;22094;52.130;5.598;2023-07-09T00:20:52;22.10;99.90
23717;DHT22;22094;52.130;5.598;2023-07-09T00:23:18;22.00;99.90
23717;DHT22;22094;52.130;5.598;2023-07-09T00:25:46;22.00;99.90
23717;DHT22;22094;52.130;5.598;2023-07-09T00:28:17;22.00;99.90
23717;DHT22;22094;52.130;5.598;2023-07-09T00:30:44;22.00;99.90
23717;DHT22;22094;52.130;5.598;2023-07-09T00:33:12;21.80;99.90
23717;DHT22;22094;52.130;5.598;2023-07-09T00:35:48;21.80;99.90
23717;DHT22;22094;52.130;5.598;2023-07-09T00:38:22;21.80;99.90
23717;DHT22;22094;52.130;5.598;2023-07-09T00:41:04;21.80;99.90
23717;DHT22;22094;52.130;5.598;2023-07-09T00:43:32;21.70;99.90
23717;DHT22;22094;52.130;5.598;2023-07-09T00:48:47;21.70;99.90
23717;DHT22;22094;52.130;5.598;2023-07-09T00:51:15;21.60;99.90
23717;DHT22;22094;52.130;5.598;2023-07-09T00:53:44;21.60;99.90
23717;DHT22;22094;52.130;5.598;2023-07-09T00:56:18;21.60;99.90
23717;DHT22;22094;52.130;5.598;2023-07-09T00:58:46;21.60;99.90
23717;DHT22;22094;52.130;5.598;2023-07-09T01:01:16;21.80;99.90
23717;DHT22;22094;52.130;5.598;2023-07-09T01:03:49;21.50;99.90
23717;DHT22;22094;52.130;5.598;2023-07-09T01:06:20;21.60;99.90
23717;DHT22;22094;52.130;5.598;2023-07-09T01:08:49;21.50;99.90
23717;DHT22;22094;52.130;5.598;2023-07-09T01:11:20;21.50;99.90
23717;DHT22;22094;52.130;5.598;2023-07-09T01:13:54;21.60;99.90
23717;DHT22;22094;52.130;5.598;2023-07-09T01:16:24;21.50;99.90
23717;DHT22;22094;52.130;5.598;2023-07-09T01:18:51;21.50;99.90
23717;DHT22;22094;52.130;5.598;2023-07-09T01:21:17;21.50;99.90
23717;DHT22;22094;52.130;5.598;2023-07-09T01:23:47;21.40;1.00
23717;DHT22;22094;52.130;5.598;2023-07-09T01:26:15;21.40;1.00
23717;DHT22;22094;52.130;5.598;2023-07-09T01:28:41;21.30;1.00
23717;DHT22;22094;52.130;5.598;2023-07-09T01:31:10;21.30;1.00
23717;DHT22;22094;52.130;5.598;2023-07-09T01:33:37;21.30;1.00
23717;DHT22;22094;52.130;5.598;2023-07-09T01:36:08;21.30;1.00
23717;DHT22;22094;52.130;5.598;2023-07-09T01:38:35;21.20;1.00
23717;DHT22;22094;52.130;5.598;2023-07-09T01:41:01;21.20;1.00
23717;DHT22;22094;52.130;5.598;2023-07-09T01:43:28;21.30;1.00
23717;DHT22;22094;52.130;5.598;2023-07-09T01:45:54;21.20;1.00
23717;DHT22;22094;52.130;5.598;2023-07-09T01:48:24;21.30;1.00
23717;DHT22;22094;52.130;5.598;2023-07-09T01:50:50;21.10;1.00
23717;DHT22;22094;52.130;5.598;2023-07-09T01:53:19;21.20;1.00
23717;DHT22;22094;52.130;5.598;2023-07-09T01:55:49;21.10;1.00
23717;DHT22;22094;52.130;5.598;2023-07-09T01:58:15;21.00;1.00
23717;DHT22;22094;52.130;5.598;2023-07-09T02:00:41;21.10;1.00
23717;DHT22;22094;52.130;5.598;2023-07-09T02:03:07;21.10;1.00
23717;DHT22;22094;52.130;5.598;2023-07-09T02:05:35;21.00;1.00
23717;DHT22;22094;52.130;5.598;2023-07-09T02:08:02;21.00;1.00
23717;DHT22;22094;52.130;5.598;2023-07-09T02:10:28;21.00;1.00
23717;DHT22;22094;52.130;5.598;2023-07-09T02:12:53;21.10;1.00
23717;DHT22;22094;52.130;5.598;2023-07-09T02:15:19;21.10;1.00
23717;DHT22;22094;52.130;5.598;2023-07-09T02:17:45;21.00;1.00
23717;DHT22;22094;52.130;5.598;2023-07-09T02:20:11;20.90;1.00
23717;DHT22;22094;52.130;5.598;2023-07-09T02:22:38;20.80;1.00
23717;DHT22;22094;52.130;5.598;2023-07-09T02:25:04;20.80;1.00
23717;DHT22;22094;52.130;5.598;2023-07-09T02:27:31;20.80;1.00
23717;DHT22;22094;52.130;5.598;2023-07-09T02:29:58;20.80;1.00
23717;DHT22;22094;52.130;5.598;2023-07-09T02:32:26;20.80;1.00
23717;DHT22;22094;52.130;5.598;2023-07-09T02:34:52;20.90;1.00
23717;DHT22;22094;52.130;5.598;2023-07-09T02:37:24;20.70;1.00
23717;DHT22;22094;52.130;5.598;2023-07-09T02:39:50;20.70;1.00
23717;DHT22;22094;52.130;5.598;2023-07-09T02:42:18;20.80;1.00
23717;DHT22;22094;52.130;5.598;2023-07-09T02:44:44;20.80;1.00
23717;DHT22;22094;52.130;5.598;2023-07-09T02:47:11;20.50;1.00
23717;DHT22;22094;52.130;5.598;2023-07-09T02:49:38;20.60;1.00
23717;DHT22;22094;52.130;5.598;2023-07-09T02:52:04;20.60;1.00
23717;DHT22;22094;52.130;5.598;2023-07-09T02:54:30;20.60;1.00
23717;DHT22;22094;52.130;5.598;2023-07-09T02:56:56;20.50;1.00
23717;DHT22;22094;52.130;5.598;2023-07-09T02:59:22;20.70;1.00
23717;DHT22;22094;52.130;5.598;2023-07-09T03:01:49;20.60;1.00
23717;DHT22;22094;52.130;5.598;2023-07-09T03:04:15;20.50;1.00
23717;DHT22;22094;52.130;5.598;2023-07-09T03:06:40;20.50;1.00
23717;DHT22;22094;52.130;5.598;2023-07-09T03:09:07;20.30;1.00
23717;DHT22;22094;52.130;5.598;2023-07-09T03:11:34;20.40;1.00
23717;DHT22;22094;52.130;5.598;2023-07-09T03:14:00;20.40;1.00
23717;DHT22;22094;52.130;5.598;2023-07-09T03:16:28;20.60;1.00
23717;DHT22;22094;52.130;5.598;2023-07-09T03:18:54;20.30;1.00
23717;DHT22;22094;52.130;5.598;2023-07-09T03:21:22;20.50;1.00
23717;DHT22;22094;52.130;5.598;2023-07-09T03:23:48;20.30;1.00
23717;DHT22;22094;52.130;5.598;2023-07-09T03:26:13;20.30;1.00
23717;DHT22;22094;52.130;5.598;2023-07-09T03:28:40;20.20;1.00
23717;DHT22;22094;52.130;5.598;2023-07-09T03:31:06;20.30;1.00
23717;DHT22;22094;52.130;5.598;2023-07-09T03:33:32;20.20;1.00
23717;DHT22;22094;52.130;5.598;2023-07-09T03:35:57;20.20;1.00
23717;DHT22;22094;52.130;5.598;2023-07-09T03:38:23;20.20;1.00
23717;DHT22;22094;52.130;5.598;2023-07-09T03:40:53;20.20;1.00
23717;DHT22;22094;52.130;5.598;2023-07-09T03:43:19;20.20;1.00
23717;DHT22;22094;52.130;5.598;2023-07-09T03:45:46;20.20;1.00
23717;DHT22;22094;52.130;5.598;2023-07-09T03:48:13;20.20;1.00
23717;DHT22;22094;52.130;5.598;2023-07-09T03:50:39;20.20;1.00
23717;DHT22;22094;52.130;5.598;2023-07-09T03:53:05;20.20;1.00
23717;DHT22;22094;52.130;5.598;2023-07-09T03:55:33;20.30;1.00
23717;DHT22;22094;52.130;5.598;2023-07-09T03:57:59;20.30;1.00
23717;DHT22;22094;52.130;5.598;2023-07-09T04:00:32;20.30;1.00
23717;DHT22;22094;52.130;5.598;2023-07-09T04:03:01;20.50;1.00
23717;DHT22;22094;52.130;5.598;2023-07-09T04:05:28;20.50;1.00
23717;DHT22;22094;52.130;5.598;2023-07-09T04:07:54;20.10;1.00
23717;DHT22;22094;52.130;5.598;2023-07-09T04:10:20;20.90;1.00
23717;DHT22;22094;52.130;5.598;2023-07-09T04:12:46;20.30;1.00
23717;DHT22;22094;52.130;5.598;2023-07-09T04:15:12;21.20;1.00
23717;DHT22;22094;52.130;5.598;2023-07-09T04:17:39;20.90;1.00
23717;DHT22;22094;52.130;5.598;2023-07-09T04:20:07;21.20;1.00
23717;DHT22;22094;52.130;5.598;2023-07-09T04:25:00;21.40;99.90
23717;DHT22;22094;52.130;5.598;2023-07-09T04:39:38;21.80;99.90
23717;DHT22;22094;52.130;5.598;2023-07-09T04:42:05;21.80;99.90
23717;DHT22;22094;52.130;5.598;2023-07-09T04:46:57;22.30;99.90
23717;DHT22;22094;52.130;5.598;2023-07-09T04:54:14;22.10;99.90
23717;DHT22;22094;52.130;5.598;2023-07-09T04:56:41;22.50;99.90
23717;DHT22;22094;52.130;5.598;2023-07-09T04:59:12;22.20;99.90
23717;DHT22;22094;52.130;5.598;2023-07-09T05:01:38;22.40;99.90
23717;DHT22;22094;52.130;5.598;2023-07-09T05:04:04;22.40;99.90
23717;DHT22;22094;52.130;5.598;2023-07-09T05:06:30;22.90;99.90
23717;DHT22;22094;52.130;5.598;2023-07-09T05:08:55;24.30;99.90
23717;DHT22;22094;52.130;5.598;2023-07-09T05:11:21;22.80;99.90
23717;DHT22;22094;52.130;5.598;2023-07-09T05:13:46;24.50;99.90
23717;DHT22;22094;52.130;5.598;2023-07-09T05:16:12;23.30;83.10
23717;DHT22;22094;52.130;5.598;2023-07-09T05:21:04;23.30;1.00
23717;DHT22;22094;52.130;5.598;2023-07-09T05:23:30;23.40;1.00
23717;DHT22;22094;52.130;5.598;2023-07-09T05:25:59;24.50;1.00
23717;DHT22;22094;52.130;5.598;2023-07-09T05:28:26;23.30;1.00
23717;DHT22;22094;52.130;5.598;2023-07-09T05:35:45;24.20;1.00
23717;DHT22;22094;52.130;5.598;2023-07-09T05:38:11;24.70;1.00
23717;DHT22;22094;52.130;5.598;2023-07-09T05:45:30;24.60;99.90
23717;DHT22;22094;52.130;5.598;2023-07-09T05:47:57;24.10;40.20
23717;DHT22;22094;52.130;5.598;2023-07-09T05:50:22;25.60;1.00
23717;DHT22;22094;52.130;5.598;2023-07-09T05:52:48;25.90;1.00
23717;DHT22;22094;52.130;5.598;2023-07-09T05:55:14;25.30;1.00
23717;DHT22;22094;52.130;5.598;2023-07-09T05:57:39;25.90;99.90
23717;DHT22;22094;52.130;5.598;2023-07-09T06:00:06;26.20;1.00
23717;DHT22;22094;52.130;5.598;2023-07-09T06:02:33;28.00;1.00
23717;DHT22;22094;52.130;5.598;2023-07-09T06:04:59;25.80;1.00
23717;DHT22;22094;52.130;5.598;2023-07-09T06:07:24;26.00;35.00
23717;DHT22;22094;52.130;5.598;2023-07-09T06:09:50;26.50;1.00
23717;DHT22;22094;52.130;5.598;2023-07-09T06:14:42;28.00;99.90
23717;DHT22;22094;52.130;5.598;2023-07-09T06:22:00;27.60;1.00
23717;DHT22;22094;52.130;5.598;2023-07-09T06:24:25;28.00;99.90
23717;DHT22;22094;52.130;5.598;2023-07-09T06:26:51;28.40;1.00
23717;DHT22;22094;52.130;5.598;2023-07-09T06:29:17;27.80;1.00
23717;DHT22;22094;52.130;5.598;2023-07-09T06:31:42;27.80;99.90
23717;DHT22;22094;52.130;5.598;2023-07-09T06:34:08;29.40;1.00
23717;DHT22;22094;52.130;5.598;2023-07-09T06:36:35;27.70;99.90
23717;DHT22;22094;52.130;5.598;2023-07-09T06:39:01;27.10;1.00
23717;DHT22;22094;52.130;5.598;2023-07-09T06:41:27;28.10;99.90
23717;DHT22;22094;52.130;5.598;2023-07-09T06:43:53;29.10;99.90
23717;DHT22;22094;52.130;5.598;2023-07-09T06:46:19;28.60;1.00
23717;DHT22;22094;52.130;5.598;2023-07-09T06:51:11;28.10;1.00
23717;DHT22;22094;52.130;5.598;2023-07-09T06:58:30;28.90;1.00
23717;DHT22;22094;52.130;5.598;2023-07-09T07:03:24;29.30;99.90
23717;DHT22;22094;52.130;5.598;2023-07-09T07:05:52;30.80;99.90
23717;DHT22;22094;52.130;5.598;2023-07-09T07:08:20;30.00;1.00
23717;DHT22;22094;52.130;5.598;2023-07-09T07:10:47;30.10;1.00
23717;DHT22;22094;52.130;5.598;2023-07-09T07:13:13;29.20;1.00
23717;DHT22;22094;52.130;5.598;2023-07-09T07:15:39;30.50;1.00
23717;DHT22;22094;52.130;5.598;2023-07-09T07:18:06;30.60;1.00
23717;DHT22;22094;52.130;5.598;2023-07-09T07:20:32;30.60;1.00
23717;DHT22;22094;52.130;5.598;2023-07-09T07:25:24;29.90;1.00
23717;DHT22;22094;52.130;5.598;2023-07-09T07:27:50;31.30;1.00
23717;DHT22;22094;52.130;5.598;2023-07-09T07:30:16;30.70;1.00
23717;DHT22;22094;52.130;5.598;2023-07-09T07:32:44;31.80;1.00
23717;DHT22;22094;52.130;5.598;2023-07-09T07:37:36;32.10;1.00
23717;DHT22;22094;52.130;5.598;2023-07-09T07:40:02;31.60;99.90
23717;DHT22;22094;52.130;5.598;2023-07-09T07:42:30;31.70;99.90
23717;DHT22;22094;52.130;5.598;2023-07-09T07:44:55;31.90;99.90
23717;DHT22;22094;52.130;5.598;2023-07-09T07:52:16;32.40;99.90
23717;DHT22;22094;52.130;5.598;2023-07-09T07:54:41;32.50;99.90
23717;DHT22;22094;52.130;5.598;2023-07-09T07:57:07;32.50;99.90
23717;DHT22;22094;52.130;5.598;2023-07-09T08:02:01;33.40;99.90
23717;DHT22;22094;52.130;5.598;2023-07-09T08:04:27;32.90;99.90
23717;DHT22;22094;52.130;5.598;2023-07-09T08:06:53;32.90;99.90
23717;DHT22;22094;52.130;5.598;2023-07-09T08:09:19;34.60;99.90
23717;DHT22;22094;52.130;5.598;2023-07-09T08:14:11;34.40;99.90
23717;DHT22;22094;52.130;5.598;2023-07-09T08:16:37;33.20;99.90
23717;DHT22;22094;52.130;5.598;2023-07-09T08:19:03;33.60;99.90
23717;DHT22;22094;52.130;5.598;2023-07-09T08:21:28;35.00;99.90
23717;DHT22;22094;52.130;5.598;2023-07-09T08:23:54;34.40;99.90
23717;DHT22;22094;52.130;5.598;2023-07-09T08:26:19;34.10;99.90
23717;DHT22;22094;52.130;5.598;2023-07-09T08:28:45;35.00;99.90
23717;DHT22;22094;52.130;5.598;2023-07-09T08:31:11;33.30;99.90
23717;DHT22;22094;52.130;5.598;2023-07-09T08:33:36;35.10;99.90
23717;DHT22;22094;52.130;5.598;2023-07-09T08:36:02;35.20;99.90
23717;DHT22;22094;52.130;5.598;2023-07-09T08:38:28;34.10;99.90
23717;DHT22;22094;52.130;5.598;2023-07-09T08:46:40;34.40;99.90
23717;DHT22;22094;52.130;5.598;2023-07-09T08:49:19;34.90;99.90
23717;DHT22;22094;52.130;5.598;2023-07-09T08:51:48;34.80;99.90
23717;DHT22;22094;52.130;5.598;2023-07-09T08:54:28;36.00;99.90
23717;DHT22;22094;52.130;5.598;2023-07-09T08:56:56;34.90;99.90
23717;DHT22;22094;52.130;5.598;2023-07-09T08:59:26;34.90;99.90
23717;DHT22;22094;52.130;5.598;2023-07-09T09:01:54;35.10;99.90
23717;DHT22;22094;52.130;5.598;2023-07-09T09:04:28;36.40;99.90
23717;DHT22;22094;52.130;5.598;2023-07-09T09:09:52;37.40;99.90
23717;DHT22;22094;52.130;5.598;2023-07-09T09:14:59;35.90;99.90
23717;DHT22;22094;52.130;5.598;2023-07-09T09:17:27;36.10;99.90
23717;DHT22;22094;52.130;5.598;2023-07-09T09:22:29;36.20;99.90
23717;DHT22;22094;52.130;5.598;2023-07-09T09:25:02;36.20;99.90
23717;DHT22;22094;52.130;5.598;2023-07-09T09:32:27;36.50;99.90
23717;DHT22;22094;52.130;5.598;2023-07-09T09:34:53;36.50;99.90
23717;DHT22;22094;52.130;5.598;2023-07-09T09:37:31;37.50;99.90
23717;DHT22;22094;52.130;5.598;2023-07-09T09:39:58;36.70;99.90
23717;DHT22;22094;52.130;5.598;2023-07-09T09:42:25;35.30;99.90
23717;DHT22;22094;52.130;5.598;2023-07-09T09:44:54;37.10;99.90
23717;DHT22;22094;52.130;5.598;2023-07-09T09:52:17;37.20;99.90
23717;DHT22;22094;52.130;5.598;2023-07-09T09:54:54;37.00;99.90
23717;DHT22;22094;52.130;5.598;2023-07-09T09:57:23;38.90;99.90
23717;DHT22;22094;52.130;5.598;2023-07-09T10:02:23;36.20;99.90
23717;DHT22;22094;52.130;5.598;2023-07-09T10:04:50;37.40;99.90
23717;DHT22;22094;52.130;5.598;2023-07-09T10:07:30;35.30;99.90
23717;DHT22;22094;52.130;5.598;2023-07-09T10:12:44;37.30;99.90
23717;DHT22;22094;52.130;5.598;2023-07-09T10:23:13;39.90;99.90
23717;DHT22;22094;52.130;5.598;2023-07-09T10:26:00;37.10;99.90
23717;DHT22;22094;52.130;5.598;2023-07-09T10:31:41;37.40;99.90
23717;DHT22;22094;52.130;5.598;2023-07-09T10:34:19;37.40;99.90
23717;DHT22;22094;52.130;5.598;2023-07-09T10:39:48;37.00;99.90
23717;DHT22;22094;52.130;5.598;2023-07-09T10:45:01;38.00;99.90
23717;DHT22;22094;52.130;5.598;2023-07-09T10:52:34;38.10;99.90
23717;DHT22;22094;52.130;5.598;2023-07-09T10:55:39;38.70;99.90
23717;DHT22;22094;52.130;5.598;2023-07-09T10:58:11;39.30;99.90
23717;DHT22;22094;52.130;5.598;2023-07-09T11:00:41;39.50;99.90
23717;DHT22;22094;52.130;5.598;2023-07-09T11:03:19;39.80;99.90
23717;DHT22;22094;52.130;5.598;2023-07-09T11:05:46;39.70;99.90
23717;DHT22;22094;52.130;5.598;2023-07-09T11:08:15;39.90;99.90
23717;DHT22;22094;52.130;5.598;2023-07-09T11:10:56;40.00;99.90
23717;DHT22;22094;52.130;5.598;2023-07-09T11:13:39;40.10;99.90
23717;DHT22;22094;52.130;5.598;2023-07-09T11:16:07;40.50;99.90
23717;DHT22;22094;52.130;5.598;2023-07-09T11:21:29;40.30;99.90
23717;DHT22;22094;52.130;5.598;2023-07-09T11:26:30;40.20;99.90
23717;DHT22;22094;52.130;5.598;2023-07-09T11:29:14;40.60;99.90
23717;DHT22;22094;52.130;5.598;2023-07-09T11:31:42;40.10;99.90
23717;DHT22;22094;52.130;5.598;2023-07-09T11:34:18;40.10;99.90
23717;DHT22;22094;52.130;5.598;2023-07-09T11:36:51;39.90;99.90
23717;DHT22;22094;52.130;5.598;2023-07-09T11:39:30;40.00;99.90
23717;DHT22;22094;52.130;5.598;2023-07-09T11:41:58;40.00;99.90
23717;DHT22;22094;52.130;5.598;2023-07-09T11:44:32;40.20;99.90
23717;DHT22;22094;52.130;5.598;2023-07-09T11:49:52;40.50;99.90
23717;DHT22;22094;52.130;5.598;2023-07-09T11:52:34;40.70;99.90
23717;DHT22;22094;52.130;5.598;2023-07-09T11:58:01;40.00;99.90
23717;DHT22;22094;52.130;5.598;2023-07-09T12:00:36;39.50;99.90
23717;DHT22;22094;52.130;5.598;2023-07-09T12:05:29;39.10;99.90
23717;DHT22;22094;52.130;5.598;2023-07-09T12:07:59;39.50;99.90
23717;DHT22;22094;52.130;5.598;2023-07-09T12:10:28;38.20;99.90
23717;DHT22;22094;52.130;5.598;2023-07-09T12:12:58;39.00;99.90
23717;DHT22;22094;52.130;5.598;2023-07-09T12:15:28;39.50;99.90
23717;DHT22;22094;52.130;5.598;2023-07-09T12:18:02;39.10;99.90
23717;DHT22;22094;52.130;5.598;2023-07-09T12:25:25;37.50;99.90
23717;DHT22;22094;52.130;5.598;2023-07-09T12:27:53;37.50;99.90
23717;DHT22;22094;52.130;5.598;2023-07-09T12:30:19;37.30;99.90
23717;DHT22;22094;52.130;5.598;2023-07-09T12:32:47;37.40;99.90
23717;DHT22;22094;52.130;5.598;2023-07-09T12:35:16;38.00;99.90
23717;DHT22;22094;52.130;5.598;2023-07-09T12:37:43;35.80;99.90
23717;DHT22;22094;52.130;5.598;2023-07-09T12:40:30;36.40;99.90
23717;DHT22;22094;52.130;5.598;2023-07-09T12:45:23;37.00;99.90
23717;DHT22;22094;52.130;5.598;2023-07-09T12:50:31;36.60;99.90
23717;DHT22;22094;52.130;5.598;2023-07-09T12:53:02;36.70;99.90
23717;DHT22;22094;52.130;5.598;2023-07-09T12:55:39;36.30;99.90
23717;DHT22;22094;52.130;5.598;2023-07-09T12:58:09;35.80;99.90
23717;DHT22;22094;52.130;5.598;2023-07-09T13:00:36;33.70;99.90
23717;DHT22;22094;52.130;5.598;2023-07-09T13:03:02;35.40;99.90
23717;DHT22;22094;52.130;5.598;2023-07-09T13:05:28;34.90;99.90
23717;DHT22;22094;52.130;5.598;2023-07-09T13:08:00;34.60;99.90
23717;DHT22;22094;52.130;5.598;2023-07-09T13:10:31;34.70;99.90
23717;DHT22;22094;52.130;5.598;2023-07-09T13:13:01;34.40;99.90
23717;DHT22;22094;52.130;5.598;2023-07-09T13:18:01;34.10;99.90
23717;DHT22;22094;52.130;5.598;2023-07-09T13:20:28;32.50;99.90
23717;DHT22;22094;52.130;5.598;2023-07-09T13:22:55;33.10;99.90
23717;DHT22;22094;52.130;5.598;2023-07-09T13:25:20;31.10;99.90
23717;DHT22;22094;52.130;5.598;2023-07-09T13:27:46;30.70;99.90
23717;DHT22;22094;52.130;5.598;2023-07-09T13:30:12;30.80;99.90
23717;DHT22;22094;52.130;5.598;2023-07-09T13:32:38;32.00;99.90
23717;DHT22;22094;52.130;5.598;2023-07-09T13:35:12;30.50;99.90
23717;DHT22;22094;52.130;5.598;2023-07-09T13:37:38;31.90;99.90
23717;DHT22;22094;52.130;5.598;2023-07-09T13:40:04;31.30;99.90
23717;DHT22;22094;52.130;5.598;2023-07-09T13:42:30;30.90;99.90
23717;DHT22;22094;52.130;5.598;2023-07-09T13:44:55;31.30;99.90
23717;DHT22;22094;52.130;5.598;2023-07-09T13:47:21;32.50;99.90
23717;DHT22;22094;52.130;5.598;2023-07-09T13:49:47;31.40;99.90
23717;DHT22;22094;52.130;5.598;2023-07-09T13:52:19;30.10;99.90
23717;DHT22;22094;52.130;5.598;2023-07-09T13:54:46;28.50;99.90
23717;DHT22;22094;52.130;5.598;2023-07-09T13:57:17;29.30;99.90
23717;DHT22;22094;52.130;5.598;2023-07-09T13:59:43;30.60;99.90
23717;DHT22;22094;52.130;5.598;2023-07-09T14:02:25;28.00;99.90
23717;DHT22;22094;52.130;5.598;2023-07-09T14:04:58;29.10;99.90
23717;DHT22;22094;52.130;5.598;2023-07-09T14:07:34;29.10;99.90
23717;DHT22;22094;52.130;5.598;2023-07-09T14:10:03;29.10;99.90
23717;DHT22;22094;52.130;5.598;2023-07-09T14:12:29;28.80;99.90
23717;DHT22;22094;52.130;5.598;2023-07-09T14:14:57;29.00;99.90
23717;DHT22;22094;52.130;5.598;2023-07-09T14:17:24;28.90;99.90
23717;DHT22;22094;52.130;5.598;2023-07-09T14:19:52;28.80;99.90
23717;DHT22;22094;52.130;5.598;2023-07-09T14:22:31;28.80;99.90
23717;DHT22;22094;52.130;5.598;2023-07-09T14:24:58;28.50;99.90
23717;DHT22;22094;52.130;5.598;2023-07-09T14:27:24;28.10;99.90
23717;DHT22;22094;52.130;5.598;2023-07-09T14:29:50;27.30;99.90
23717;DHT22;22094;52.130;5.598;2023-07-09T14:32:34;26.60;99.90
23717;DHT22;22094;52.130;5.598;2023-07-09T14:35:15;26.50;1.00
23717;DHT22;22094;52.130;5.598;2023-07-09T14:37:42;26.30;99.90
23717;DHT22;22094;52.130;5.598;2023-07-09T14:40:08;26.10;1.00
23717;DHT22;22094;52.130;5.598;2023-07-09T14:42:35;25.80;99.90
23717;DHT22;22094;52.130;5.598;2023-07-09T14:45:01;25.70;1.00
23717;DHT22;22094;52.130;5.598;2023-07-09T14:47:27;25.60;99.90
23717;DHT22;22094;52.130;5.598;2023-07-09T14:49:53;25.30;1.00
23717;DHT22;22094;52.130;5.598;2023-07-09T14:52:20;25.20;99.90
23717;DHT22;22094;52.130;5.598;2023-07-09T14:54:49;25.20;1.00
23717;DHT22;22094;52.130;5.598;2023-07-09T14:57:21;25.10;1.00
23717;DHT22;22094;52.130;5.598;2023-07-09T14:59:50;25.20;1.00
23717;DHT22;22094;52.130;5.598;2023-07-09T15:04:44;23.50;99.90
23717;DHT22;22094;52.130;5.598;2023-07-09T15:07:11;22.10;99.90
23717;DHT22;22094;52.130;5.598;2023-07-09T15:09:38;21.00;99.90
23717;DHT22;22094;52.130;5.598;2023-07-09T15:12:04;20.60;99.90
23717;DHT22;22094;52.130;5.598;2023-07-09T15:16:55;20.90;99.90
23717;DHT22;22094;52.130;5.598;2023-07-09T15:19:22;21.00;99.90
23717;DHT22;22094;52.130;5.598;2023-07-09T15:21:49;20.80;99.90
23717;DHT22;22094;52.130;5.598;2023-07-09T15:24:25;21.00;99.90
23717;DHT22;22094;52.130;5.598;2023-07-09T15:26:53;21.10;99.90
23717;DHT22;22094;52.130;5.598;2023-07-09T15:29:20;21.10;99.90
23717;DHT22;22094;52.130;5.598;2023-07-09T15:31:46;21.20;99.90
23717;DHT22;22094;52.130;5.598;2023-07-09T15:34:11;21.20;99.90
23717;DHT22;22094;52.130;5.598;2023-07-09T15:36:51;21.40;99.90
23717;DHT22;22094;52.130;5.598;2023-07-09T15:39:18;22.50;99.90
23717;DHT22;22094;52.130;5.598;2023-07-09T15:41:44;21.50;99.90
23717;DHT22;22094;52.130;5.598;2023-07-09T15:44:15;21.60;99.90
23717;DHT22;22094;52.130;5.598;2023-07-09T15:46:44;21.70;99.90
23717;DHT22;22094;52.130;5.598;2023-07-09T15:49:13;21.60;99.90
23717;DHT22;22094;52.130;5.598;2023-07-09T15:51:39;21.50;99.90
23717;DHT22;22094;52.130;5.598;2023-07-09T15:54:16;21.30;99.90
23717;DHT22;22094;52.130;5.598;2023-07-09T15:56:43;21.10;99.90
23717;DHT22;22094;52.130;5.598;2023-07-09T15:59:20;20.80;99.90
23717;DHT22;22094;52.130;5.598;2023-07-09T16:01:47;18.80;99.90
23717;DHT22;22094;52.130;5.598;2023-07-09T16:04:13;20.70;99.90
23717;DHT22;22094;52.130;5.598;2023-07-09T16:06:39;20.50;99.90
23717;DHT22;22094;52.130;5.598;2023-07-09T16:09:05;20.50;99.90
23717;DHT22;22094;52.130;5.598;2023-07-09T16:11:30;20.60;99.90
23717;DHT22;22094;52.130;5.598;2023-07-09T16:13:56;20.60;99.90
23717;DHT22;22094;52.130;5.598;2023-07-09T16:16:23;20.70;99.90
23717;DHT22;22094;52.130;5.598;2023-07-09T16:18:50;20.90;99.90
23717;DHT22;22094;52.130;5.598;2023-07-09T16:21:28;22.20;99.90
23717;DHT22;22094;52.130;5.598;2023-07-09T16:23:57;20.60;99.90
23717;DHT22;22094;52.130;5.598;2023-07-09T16:26:23;20.80;99.90
23717;DHT22;22094;52.130;5.598;2023-07-09T16:28:49;20.80;99.90
23717;DHT22;22094;52.130;5.598;2023-07-09T16:31:14;20.60;99.90
23717;DHT22;22094;52.130;5.598;2023-07-09T16:33:40;21.00;99.90
23717;DHT22;22094;52.130;5.598;2023-07-09T16:36:12;20.50;99.90
23717;DHT22;22094;52.130;5.598;2023-07-09T16:38:38;20.60;99.90
23717;DHT22;22094;52.130;5.598;2023-07-09T16:43:30;20.90;99.90
23717;DHT22;22094;52.130;5.598;2023-07-09T16:48:24;21.50;99.90
23717;DHT22;22094;52.130;5.598;2023-07-09T16:50:51;22.40;99.90
23717;DHT22;22094;52.130;5.598;2023-07-09T16:53:19;22.10;99.90
23717;DHT22;22094;52.130;5.598;2023-07-09T16:55:47;22.30;99.90
23717;DHT22;22094;52.130;5.598;2023-07-09T17:00:53;24.00;99.90
23717;DHT22;22094;52.130;5.598;2023-07-09T17:03:19;22.20;99.90
23717;DHT22;22094;52.130;5.598;2023-07-09T17:05:45;22.00;99.90
23717;DHT22;22094;52.130;5.598;2023-07-09T17:08:10;23.90;99.90
23717;DHT22;22094;52.130;5.598;2023-07-09T17:10:38;22.70;95.40
23717;DHT22;22094;52.130;5.598;2023-07-09T17:13:04;22.80;96.10
23717;DHT22;22094;52.130;5.598;2023-07-09T17:15:33;22.20;63.30
23717;DHT22;22094;52.130;5.598;2023-07-09T17:17:59;23.70;30.90
23717;DHT22;22094;52.130;5.598;2023-07-09T17:20:30;23.90;29.30
23717;DHT22;22094;52.130;5.598;2023-07-09T17:22:57;22.90;5.20
23717;DHT22;22094;52.130;5.598;2023-07-09T17:27:49;23.80;1.00
23717;DHT22;22094;52.130;5.598;2023-07-09T17:30:15;23.80;1.00
23717;DHT22;22094;52.130;5.598;2023-07-09T17:32:41;24.40;1.00
23717;DHT22;22094;52.130;5.598;2023-07-09T17:35:07;24.90;1.00
23717;DHT22;22094;52.130;5.598;2023-07-09T17:37:33;24.50;1.00
23717;DHT22;22094;52.130;5.598;2023-07-09T17:39:59;23.60;1.00
23717;DHT22;22094;52.130;5.598;2023-07-09T17:42:25;24.30;1.00
23717;DHT22;22094;52.130;5.598;2023-07-09T17:47:18;23.50;1.00
23717;DHT22;22094;52.130;5.598;2023-07-09T17:49:46;23.50;1.00
23717;DHT22;22094;52.130;5.598;2023-07-09T17:52:19;22.80;1.00
23717;DHT22;22094;52.130;5.598;2023-07-09T17:54:46;23.70;1.00
23717;DHT22;22094;52.130;5.598;2023-07-09T17:57:22;23.00;1.00
23717;DHT22;22094;52.130;5.598;2023-07-09T18:02:26;22.40;1.00
23717;DHT22;22094;52.130;5.598;2023-07-09T18:04:52;24.00;1.00
23717;DHT22;22094;52.130;5.598;2023-07-09T18:12:15;23.90;1.00
23717;DHT22;22094;52.130;5.598;2023-07-09T18:14:44;23.10;1.00
23717;DHT22;22094;52.130;5.598;2023-07-09T18:17:20;22.20;1.00
23717;DHT22;22094;52.130;5.598;2023-07-09T18:22:16;22.10;1.00
23717;DHT22;22094;52.130;5.598;2023-07-09T18:24:43;21.90;1.00
23717;DHT22;22094;52.130;5.598;2023-07-09T18:27:35;24.10;1.00
23717;DHT22;22094;52.130;5.598;2023-07-09T18:30:02;22.80;1.00
23717;DHT22;22094;52.130;5.598;2023-07-09T18:34:58;21.80;1.00
23717;DHT22;22094;52.130;5.598;2023-07-09T18:37:24;21.50;1.00
23717;DHT22;22094;52.130;5.598;2023-07-09T18:39:50;21.40;1.00